createdAt,value
2018-12-01T00:04:47.027Z,5.90
2018-12-01T00:09:50.148Z,5.90
2018-12-01T00:14:53.270Z,5.90
2018-12-01T00:19:56.369Z,5.80
2018-12-01T00:25:00.510Z,5.80
2018-12-01T00:30:02.808Z,5.80
2018-12-01T00:35:07.135Z,5.80
2018-12-01T00:40:15.311Z,5.70
2018-12-01T00:45:19.302Z,5.70
2018-12-01T00:50:23.355Z,5.70
2018-12-01T00:55:26.537Z,5.60
2018-12-01T01:00:29.690Z,5.60
2018-12-01T01:05:32.766Z,5.60
2018-12-01T01:10:36.031Z,5.50
2018-12-01T01:15:39.094Z,5.50
2018-12-01T01:20:42.186Z,5.50
2018-12-01T01:25:45.273Z,5.40
2018-12-01T01:30:48.364Z,5.40
2018-12-01T01:35:51.454Z,5.40
2018-12-01T01:40:59.871Z,5.40
2018-12-01T01:46:02.955Z,5.30
2018-12-01T01:51:06.315Z,5.30
2018-12-01T01:56:09.414Z,5.30
2018-12-01T02:01:12.516Z,5.30
2018-12-01T02:06:15.651Z,5.30
2018-12-01T02:11:18.822Z,5.30
2018-12-01T02:16:21.919Z,5.20
2018-12-01T02:21:26.184Z,5.20
2018-12-01T02:26:29.275Z,5.20
2018-12-01T02:31:32.426Z,5.20
2018-12-01T02:36:35.634Z,5.20
2018-12-01T02:41:38.755Z,5.10
2018-12-01T02:46:53.366Z,5.10
2018-12-01T02:51:56.449Z,5.10
2018-12-01T02:56:59.570Z,5.10
2018-12-01T03:02:02.662Z,5.10
2018-12-01T03:07:05.912Z,5.00
2018-12-01T03:12:09.156Z,5.00
2018-12-01T03:17:12.270Z,5.00
2018-12-01T03:22:15.379Z,5.00
2018-12-01T03:27:18.490Z,4.90
2018-12-01T03:32:21.584Z,5.00
2018-12-01T03:37:24.678Z,5.00
2018-12-01T03:42:27.778Z,4.90
2018-12-01T03:47:30.955Z,5.00
2018-12-01T03:52:34.267Z,4.90
2018-12-01T03:57:37.369Z,4.90
2018-12-01T04:02:40.559Z,4.90
2018-12-01T04:07:43.743Z,4.90
2018-12-01T04:12:46.916Z,4.90
2018-12-01T04:17:50.020Z,4.90
2018-12-01T04:22:53.265Z,4.90
2018-12-01T04:27:56.390Z,4.80
2018-12-01T04:32:59.507Z,4.90
2018-12-01T04:38:02.618Z,4.80
2018-12-01T04:43:05.894Z,4.80
2018-12-01T04:48:08.965Z,4.80
2018-12-01T04:53:12.071Z,4.80
2018-12-01T04:58:15.321Z,4.80
2018-12-01T05:03:18.402Z,4.80
2018-12-01T05:08:21.579Z,4.80
2018-12-01T05:13:24.825Z,4.80
2018-12-01T05:18:27.927Z,4.80
2018-12-01T05:23:31.043Z,4.80
2018-12-01T05:28:34.132Z,4.70
2018-12-01T05:33:37.208Z,4.80
2018-12-01T05:38:40.372Z,4.70
2018-12-01T05:43:43.548Z,4.70
2018-12-01T05:48:46.647Z,4.70
2018-12-01T05:53:49.803Z,4.70
2018-12-01T05:58:52.878Z,4.70
2018-12-01T06:03:55.944Z,4.70
2018-12-01T06:08:59.013Z,4.70
2018-12-01T06:14:02.157Z,4.70
2018-12-01T06:19:05.912Z,4.70
2018-12-01T06:24:09.008Z,4.70
2018-12-01T06:29:12.119Z,4.70
2018-12-01T06:35:18.406Z,4.70
2018-12-01T06:40:21.692Z,4.70
2018-12-01T06:45:24.770Z,4.70
2018-12-01T06:50:27.866Z,4.70
2018-12-01T06:55:30.963Z,4.60
2018-12-01T07:00:34.050Z,4.70
2018-12-01T07:05:37.131Z,4.70
2018-12-01T07:10:40.227Z,4.70
2018-12-01T07:15:43.742Z,4.60
2018-12-01T07:20:46.839Z,4.60
2018-12-01T07:25:49.955Z,4.60
2018-12-01T07:30:53.086Z,4.60
2018-12-01T07:35:56.171Z,4.60
2018-12-01T07:40:59.274Z,4.60
2018-12-01T07:46:02.370Z,4.60
2018-12-01T07:51:05.549Z,4.60
2018-12-01T07:56:08.686Z,4.60
2018-12-01T08:01:11.769Z,4.60
2018-12-01T08:06:14.938Z,4.60
2018-12-01T08:11:18.018Z,4.60
2018-12-01T08:16:22.935Z,4.60
2018-12-01T08:21:26.255Z,4.60
2018-12-01T08:26:29.344Z,4.60
2018-12-01T08:31:32.489Z,4.60
2018-12-01T08:36:35.607Z,4.60
2018-12-01T08:41:38.682Z,4.60
2018-12-01T08:46:41.778Z,4.60
2018-12-01T08:51:44.918Z,4.70
2018-12-01T08:56:48.036Z,4.60
2018-12-01T09:01:51.115Z,4.60
2018-12-01T09:06:54.226Z,4.70
2018-12-01T09:11:57.350Z,4.70
2018-12-01T09:17:00.470Z,4.70
2018-12-01T09:22:03.575Z,4.70
2018-12-01T09:27:06.691Z,4.70
2018-12-01T09:32:09.828Z,4.70
2018-12-01T09:37:12.963Z,4.70
2018-12-01T09:42:16.030Z,4.70
2018-12-01T09:47:19.139Z,4.70
2018-12-01T09:52:22.270Z,4.70
2018-12-01T09:57:25.388Z,4.80
2018-12-01T10:02:28.478Z,4.80
2018-12-01T10:07:31.626Z,4.80
2018-12-01T10:12:34.755Z,4.80
2018-12-01T10:17:37.881Z,4.90
2018-12-01T10:22:40.996Z,4.90
2018-12-01T10:27:44.239Z,4.90
2018-12-01T10:32:48.810Z,4.90
2018-12-01T10:37:54.452Z,4.90
2018-12-01T10:42:57.574Z,5.00
2018-12-01T10:48:00.679Z,5.00
2018-12-01T10:53:03.782Z,5.00
2018-12-01T10:58:11.091Z,5.00
2018-12-01T11:03:19.742Z,5.00
2018-12-01T11:08:22.842Z,5.10
2018-12-01T11:13:25.958Z,5.10
2018-12-01T11:18:29.078Z,5.10
2018-12-01T11:23:32.275Z,5.10
2018-12-01T11:28:35.420Z,5.10
2018-12-01T11:33:38.538Z,5.20
2018-12-01T11:38:41.675Z,5.20
2018-12-01T11:43:44.786Z,5.30
2018-12-01T11:48:47.934Z,5.30
2018-12-01T11:53:51.057Z,5.30
2018-12-01T11:58:54.174Z,5.30
2018-12-01T12:03:57.263Z,5.40
2018-12-01T12:09:00.352Z,5.40
2018-12-01T12:14:03.546Z,5.40
2018-12-01T12:35:40.645Z,5.60
